OPCT weather

Chirat Airport
Nowshera, North-West Frontier, Pakistan

Public forecast

Using degrees Celsius for public forecast. Weather courtesy of forecast.io.

METAR (pilot weather report)

Closest report is Peshawar International Airport, 22.6 nm (41.9 km) W. Retrieved 2019/09/22 22:00 UTC (1 minute ago):

OPPS 222200Z 31004KT 4000 HZ FEW100 26/18 Q1011

TAF (pilot weather forecast)

Closest forecast is Peshawar International Airport, 22.6 nm (41.9 km) W. Retrieved 2019/09/22 18:00 UTC (4 hours ago):

TAF OPPS 221530Z 2218/2324 05015KT 4000 HZ FEW040 FEW100 TEMPO 2303/2305 3000 TEMPO 2309/2312 FEW030TCU SCT040